sensor_id;sensor_type;location;lat;lon;timestamp;temperature;humidity
13880;DHT22;7010;48.200;16.332;2022-08-21T00:00:52;17.90;99.90
13880;DHT22;7010;48.200;16.332;2022-08-21T00:03:22;17.90;99.90
13880;DHT22;7010;48.200;16.332;2022-08-21T00:05:51;17.90;99.90
13880;DHT22;7010;48.200;16.332;2022-08-21T00:08:20;17.90;99.90
13880;DHT22;7010;48.200;16.332;2022-08-21T00:10:49;17.90;99.90
13880;DHT22;7010;48.200;16.332;2022-08-21T00:13:18;17.90;99.90
13880;DHT22;7010;48.200;16.332;2022-08-21T00:15:48;17.80;99.90
13880;DHT22;7010;48.200;16.332;2022-08-21T00:18:17;17.80;99.90
13880;DHT22;7010;48.200;16.332;2022-08-21T00:20:47;17.90;99.90
13880;DHT22;7010;48.200;16.332;2022-08-21T00:23:16;17.90;99.90
13880;DHT22;7010;48.200;16.332;2022-08-21T00:25:45;17.90;99.90
13880;DHT22;7010;48.200;16.332;2022-08-21T00:28:14;17.80;99.90
13880;DHT22;7010;48.200;16.332;2022-08-21T00:30:43;17.90;99.90
13880;DHT22;7010;48.200;16.332;2022-08-21T00:33:11;17.90;99.90
13880;DHT22;7010;48.200;16.332;2022-08-21T00:35:42;17.80;99.90
13880;DHT22;7010;48.200;16.332;2022-08-21T00:38:12;17.80;99.90
13880;DHT22;7010;48.200;16.332;2022-08-21T00:40:44;17.80;99.90
13880;DHT22;7010;48.200;16.332;2022-08-21T00:43:18;17.80;99.90
13880;DHT22;7010;48.200;16.332;2022-08-21T00:45:47;17.70;99.90
13880;DHT22;7010;48.200;16.332;2022-08-21T00:48:18;17.70;99.90
13880;DHT22;7010;48.200;16.332;2022-08-21T00:50:49;17.80;99.90
13880;DHT22;7010;48.200;16.332;2022-08-21T00:53:19;17.80;99.90
13880;DHT22;7010;48.200;16.332;2022-08-21T00:55:48;17.80;99.90
13880;DHT22;7010;48.200;16.332;2022-08-21T00:58:18;17.80;99.90
13880;DHT22;7010;48.200;16.332;2022-08-21T01:00:49;17.80;99.90
13880;DHT22;7010;48.200;16.332;2022-08-21T01:03:21;17.80;99.90
13880;DHT22;7010;48.200;16.332;2022-08-21T01:05:50;17.80;99.90
13880;DHT22;7010;48.200;16.332;2022-08-21T01:08:21;17.80;99.90
13880;DHT22;7010;48.200;16.332;2022-08-21T01:10:52;17.90;99.90
13880;DHT22;7010;48.200;16.332;2022-08-21T01:13:21;17.90;99.90
13880;DHT22;7010;48.200;16.332;2022-08-21T01:15:53;17.90;99.90
13880;DHT22;7010;48.200;16.332;2022-08-21T01:18:23;17.90;99.90
13880;DHT22;7010;48.200;16.332;2022-08-21T01:21:08;17.90;99.90
13880;DHT22;7010;48.200;16.332;2022-08-21T01:23:41;17.90;99.90
13880;DHT22;7010;48.200;16.332;2022-08-21T01:26:10;18.00;99.90
13880;DHT22;7010;48.200;16.332;2022-08-21T01:28:44;18.00;99.90
13880;DHT22;7010;48.200;16.332;2022-08-21T01:31:13;18.00;99.90
13880;DHT22;7010;48.200;16.332;2022-08-21T01:33:49;18.10;99.90
13880;DHT22;7010;48.200;16.332;2022-08-21T01:36:19;18.10;99.90
13880;DHT22;7010;48.200;16.332;2022-08-21T01:38:49;18.10;99.90
13880;DHT22;7010;48.200;16.332;2022-08-21T01:41:17;18.10;99.90
13880;DHT22;7010;48.200;16.332;2022-08-21T01:43:45;18.10;99.90
13880;DHT22;7010;48.200;16.332;2022-08-21T01:46:14;18.00;99.90
13880;DHT22;7010;48.200;16.332;2022-08-21T01:48:42;18.00;99.90
13880;DHT22;7010;48.200;16.332;2022-08-21T01:51:11;18.00;99.90
13880;DHT22;7010;48.200;16.332;2022-08-21T01:53:41;17.90;99.90
13880;DHT22;7010;48.200;16.332;2022-08-21T01:56:11;17.90;99.90
13880;DHT22;7010;48.200;16.332;2022-08-21T01:58:42;17.80;99.90
13880;DHT22;7010;48.200;16.332;2022-08-21T02:01:11;17.80;99.90
13880;DHT22;7010;48.200;16.332;2022-08-21T02:03:39;17.80;99.90
13880;DHT22;7010;48.200;16.332;2022-08-21T02:06:12;17.80;99.90
13880;DHT22;7010;48.200;16.332;2022-08-21T02:08:43;17.80;99.90
13880;DHT22;7010;48.200;16.332;2022-08-21T02:11:11;17.80;99.90
13880;DHT22;7010;48.200;16.332;2022-08-21T02:13:40;17.80;99.90
13880;DHT22;7010;48.200;16.332;2022-08-21T02:16:09;17.80;99.90
13880;DHT22;7010;48.200;16.332;2022-08-21T02:18:39;17.80;99.90
13880;DHT22;7010;48.200;16.332;2022-08-21T02:21:07;17.70;99.90
13880;DHT22;7010;48.200;16.332;2022-08-21T02:23:35;17.70;99.90
13880;DHT22;7010;48.200;16.332;2022-08-21T02:26:07;17.60;99.90
13880;DHT22;7010;48.200;16.332;2022-08-21T02:28:37;17.60;99.90
13880;DHT22;7010;48.200;16.332;2022-08-21T02:31:06;17.60;99.90
13880;DHT22;7010;48.200;16.332;2022-08-21T02:33:34;17.50;99.90
13880;DHT22;7010;48.200;16.332;2022-08-21T02:36:03;17.50;99.90
13880;DHT22;7010;48.200;16.332;2022-08-21T02:38:33;17.40;99.90
13880;DHT22;7010;48.200;16.332;2022-08-21T02:41:09;17.40;99.90
13880;DHT22;7010;48.200;16.332;2022-08-21T02:43:37;17.40;99.90
13880;DHT22;7010;48.200;16.332;2022-08-21T02:46:07;17.40;99.90
13880;DHT22;7010;48.200;16.332;2022-08-21T02:48:36;17.40;99.90
13880;DHT22;7010;48.200;16.332;2022-08-21T02:51:07;17.40;99.90
13880;DHT22;7010;48.200;16.332;2022-08-21T02:53:36;17.30;99.90
13880;DHT22;7010;48.200;16.332;2022-08-21T02:56:09;17.40;99.90
13880;DHT22;7010;48.200;16.332;2022-08-21T02:58:40;17.30;99.90
13880;DHT22;7010;48.200;16.332;2022-08-21T03:01:09;17.30;99.90
13880;DHT22;7010;48.200;16.332;2022-08-21T03:03:38;17.40;99.90
13880;DHT22;7010;48.200;16.332;2022-08-21T03:06:08;17.30;99.90
13880;DHT22;7010;48.200;16.332;2022-08-21T03:08:38;17.40;99.90
13880;DHT22;7010;48.200;16.332;2022-08-21T03:11:08;17.40;99.90
13880;DHT22;7010;48.200;16.332;2022-08-21T03:13:39;17.50;99.90
13880;DHT22;7010;48.200;16.332;2022-08-21T03:16:07;17.50;99.90
13880;DHT22;7010;48.200;16.332;2022-08-21T03:18:36;17.50;99.90
13880;DHT22;7010;48.200;16.332;2022-08-21T03:21:05;17.50;99.90
13880;DHT22;7010;48.200;16.332;2022-08-21T03:23:34;17.50;99.90
13880;DHT22;7010;48.200;16.332;2022-08-21T03:26:03;17.50;99.90
13880;DHT22;7010;48.200;16.332;2022-08-21T03:28:35;17.50;99.90
13880;DHT22;7010;48.200;16.332;2022-08-21T03:31:03;17.50;99.90
13880;DHT22;7010;48.200;16.332;2022-08-21T03:33:32;17.40;99.90
13880;DHT22;7010;48.200;16.332;2022-08-21T03:36:03;17.50;99.90
13880;DHT22;7010;48.200;16.332;2022-08-21T03:38:33;17.50;99.90
13880;DHT22;7010;48.200;16.332;2022-08-21T03:41:03;17.50;99.90
13880;DHT22;7010;48.200;16.332;2022-08-21T03:43:35;17.50;99.90
13880;DHT22;7010;48.200;16.332;2022-08-21T03:46:06;17.50;99.90
13880;DHT22;7010;48.200;16.332;2022-08-21T03:48:35;17.50;99.90
13880;DHT22;7010;48.200;16.332;2022-08-21T03:51:04;17.50;99.90
13880;DHT22;7010;48.200;16.332;2022-08-21T03:53:33;17.60;99.90
13880;DHT22;7010;48.200;16.332;2022-08-21T03:56:02;17.60;99.90
13880;DHT22;7010;48.200;16.332;2022-08-21T03:58:31;17.60;99.90
13880;DHT22;7010;48.200;16.332;2022-08-21T04:01:03;17.60;99.90
13880;DHT22;7010;48.200;16.332;2022-08-21T04:03:35;17.60;99.90
13880;DHT22;7010;48.200;16.332;2022-08-21T04:06:04;17.60;99.90
13880;DHT22;7010;48.200;16.332;2022-08-21T04:08:33;17.60;99.90
13880;DHT22;7010;48.200;16.332;2022-08-21T04:11:02;17.60;99.90
13880;DHT22;7010;48.200;16.332;2022-08-21T04:13:30;17.60;99.90
13880;DHT22;7010;48.200;16.332;2022-08-21T04:15:58;17.60;99.90
13880;DHT22;7010;48.200;16.332;2022-08-21T04:18:28;17.70;99.90
13880;DHT22;7010;48.200;16.332;2022-08-21T04:20:58;17.70;99.90
13880;DHT22;7010;48.200;16.332;2022-08-21T04:23:27;17.70;99.90
13880;DHT22;7010;48.200;16.332;2022-08-21T04:25:56;17.70;99.90
13880;DHT22;7010;48.200;16.332;2022-08-21T04:28:27;17.70;99.90
13880;DHT22;7010;48.200;16.332;2022-08-21T04:30:57;17.70;99.90
13880;DHT22;7010;48.200;16.332;2022-08-21T04:33:25;17.80;99.90
13880;DHT22;7010;48.200;16.332;2022-08-21T04:35:55;17.80;99.90
13880;DHT22;7010;48.200;16.332;2022-08-21T04:38:23;17.80;99.90
13880;DHT22;7010;48.200;16.332;2022-08-21T04:41:02;17.80;99.90
13880;DHT22;7010;48.200;16.332;2022-08-21T04:43:31;17.80;99.90
13880;DHT22;7010;48.200;16.332;2022-08-21T04:45:59;17.80;99.90
13880;DHT22;7010;48.200;16.332;2022-08-21T04:48:28;17.80;99.90
13880;DHT22;7010;48.200;16.332;2022-08-21T04:51:02;17.80;99.90
13880;DHT22;7010;48.200;16.332;2022-08-21T04:53:36;17.80;99.90
13880;DHT22;7010;48.200;16.332;2022-08-21T04:56:07;17.80;99.90
13880;DHT22;7010;48.200;16.332;2022-08-21T04:58:37;17.80;99.90
13880;DHT22;7010;48.200;16.332;2022-08-21T05:01:09;17.90;99.90
13880;DHT22;7010;48.200;16.332;2022-08-21T05:03:38;17.80;99.90
13880;DHT22;7010;48.200;16.332;2022-08-21T05:06:11;17.90;99.90
13880;DHT22;7010;48.200;16.332;2022-08-21T05:08:41;17.90;99.90
13880;DHT22;7010;48.200;16.332;2022-08-21T05:11:10;17.80;99.90
13880;DHT22;7010;48.200;16.332;2022-08-21T05:13:39;17.90;99.90
13880;DHT22;7010;48.200;16.332;2022-08-21T05:16:08;17.90;99.90
13880;DHT22;7010;48.200;16.332;2022-08-21T05:18:37;18.00;99.90
13880;DHT22;7010;48.200;16.332;2022-08-21T05:21:05;18.00;99.90
13880;DHT22;7010;48.200;16.332;2022-08-21T05:23:35;18.00;99.90
13880;DHT22;7010;48.200;16.332;2022-08-21T05:26:03;18.00;99.90
13880;DHT22;7010;48.200;16.332;2022-08-21T05:28:32;18.10;99.90
13880;DHT22;7010;48.200;16.332;2022-08-21T05:31:00;18.20;99.90
13880;DHT22;7010;48.200;16.332;2022-08-21T05:33:29;18.20;99.90
13880;DHT22;7010;48.200;16.332;2022-08-21T05:35:57;18.20;99.90
13880;DHT22;7010;48.200;16.332;2022-08-21T05:38:26;18.20;99.90
13880;DHT22;7010;48.200;16.332;2022-08-21T05:40:56;18.30;99.90
13880;DHT22;7010;48.200;16.332;2022-08-21T05:43:25;18.30;99.90
13880;DHT22;7010;48.200;16.332;2022-08-21T05:45:53;18.30;99.90
13880;DHT22;7010;48.200;16.332;2022-08-21T05:48:23;18.30;99.90
13880;DHT22;7010;48.200;16.332;2022-08-21T05:50:52;18.30;99.90
13880;DHT22;7010;48.200;16.332;2022-08-21T05:53:22;18.30;99.90
13880;DHT22;7010;48.200;16.332;2022-08-21T05:55:51;18.40;99.90
13880;DHT22;7010;48.200;16.332;2022-08-21T05:58:21;18.40;99.90
13880;DHT22;7010;48.200;16.332;2022-08-21T06:00:51;18.40;99.90
13880;DHT22;7010;48.200;16.332;2022-08-21T06:03:24;18.50;99.90
13880;DHT22;7010;48.200;16.332;2022-08-21T06:05:52;18.50;99.90
13880;DHT22;7010;48.200;16.332;2022-08-21T06:08:21;18.50;99.90
13880;DHT22;7010;48.200;16.332;2022-08-21T06:10:51;18.60;99.90
13880;DHT22;7010;48.200;16.332;2022-08-21T06:13:22;18.60;99.90
13880;DHT22;7010;48.200;16.332;2022-08-21T06:16:02;18.60;99.90
13880;DHT22;7010;48.200;16.332;2022-08-21T06:18:30;18.70;99.90
13880;DHT22;7010;48.200;16.332;2022-08-21T06:20:59;18.70;99.90
13880;DHT22;7010;48.200;16.332;2022-08-21T06:23:27;18.70;99.90
13880;DHT22;7010;48.200;16.332;2022-08-21T06:25:59;18.70;99.90
13880;DHT22;7010;48.200;16.332;2022-08-21T06:28:29;18.70;99.90
13880;DHT22;7010;48.200;16.332;2022-08-21T06:30:58;18.80;99.90
13880;DHT22;7010;48.200;16.332;2022-08-21T06:33:26;18.80;99.90
13880;DHT22;7010;48.200;16.332;2022-08-21T06:35:58;18.80;99.90
13880;DHT22;7010;48.200;16.332;2022-08-21T06:38:26;18.80;99.90
13880;DHT22;7010;48.200;16.332;2022-08-21T06:40:57;18.90;99.90
13880;DHT22;7010;48.200;16.332;2022-08-21T06:43:26;18.90;99.90
13880;DHT22;7010;48.200;16.332;2022-08-21T06:46:07;18.90;99.90
13880;DHT22;7010;48.200;16.332;2022-08-21T06:48:36;18.90;99.90
13880;DHT22;7010;48.200;16.332;2022-08-21T06:51:04;19.00;99.90
13880;DHT22;7010;48.200;16.332;2022-08-21T06:53:33;19.00;99.90
13880;DHT22;7010;48.200;16.332;2022-08-21T06:56:02;19.00;99.90
13880;DHT22;7010;48.200;16.332;2022-08-21T06:58:30;19.00;99.90
13880;DHT22;7010;48.200;16.332;2022-08-21T07:00:59;19.00;99.90
13880;DHT22;7010;48.200;16.332;2022-08-21T07:03:31;19.00;99.90
13880;DHT22;7010;48.200;16.332;2022-08-21T07:05:59;19.00;99.90
13880;DHT22;7010;48.200;16.332;2022-08-21T07:08:28;19.10;99.90
13880;DHT22;7010;48.200;16.332;2022-08-21T07:10:59;19.10;99.90
13880;DHT22;7010;48.200;16.332;2022-08-21T07:13:28;19.10;99.90
13880;DHT22;7010;48.200;16.332;2022-08-21T07:15:56;19.10;99.90
13880;DHT22;7010;48.200;16.332;2022-08-21T07:18:31;19.10;99.90
13880;DHT22;7010;48.200;16.332;2022-08-21T07:21:00;19.10;99.90
13880;DHT22;7010;48.200;16.332;2022-08-21T07:23:33;19.10;99.90
13880;DHT22;7010;48.200;16.332;2022-08-21T07:26:01;19.00;99.90
13880;DHT22;7010;48.200;16.332;2022-08-21T07:28:30;18.90;99.90
13880;DHT22;7010;48.200;16.332;2022-08-21T07:31:00;19.00;99.90
13880;DHT22;7010;48.200;16.332;2022-08-21T07:33:32;18.90;99.90
13880;DHT22;7010;48.200;16.332;2022-08-21T07:36:02;19.00;99.90
13880;DHT22;7010;48.200;16.332;2022-08-21T07:38:30;18.90;99.90
13880;DHT22;7010;48.200;16.332;2022-08-21T07:41:00;19.00;99.90
13880;DHT22;7010;48.200;16.332;2022-08-21T07:43:29;19.10;99.90
13880;DHT22;7010;48.200;16.332;2022-08-21T07:45:57;19.10;99.90
13880;DHT22;7010;48.200;16.332;2022-08-21T07:48:26;19.10;99.90
13880;DHT22;7010;48.200;16.332;2022-08-21T07:50:55;19.20;99.90
13880;DHT22;7010;48.200;16.332;2022-08-21T07:53:24;19.20;99.90
13880;DHT22;7010;48.200;16.332;2022-08-21T07:55:52;19.10;99.90
13880;DHT22;7010;48.200;16.332;2022-08-21T07:58:20;19.00;99.90
13880;DHT22;7010;48.200;16.332;2022-08-21T08:00:48;18.80;99.90
13880;DHT22;7010;48.200;16.332;2022-08-21T08:03:17;18.70;99.90
13880;DHT22;7010;48.200;16.332;2022-08-21T08:05:55;18.60;99.90
13880;DHT22;7010;48.200;16.332;2022-08-21T08:08:25;18.50;99.90
13880;DHT22;7010;48.200;16.332;2022-08-21T08:10:53;18.40;99.90
13880;DHT22;7010;48.200;16.332;2022-08-21T08:13:24;18.30;99.90
13880;DHT22;7010;48.200;16.332;2022-08-21T08:15:53;18.30;99.90
13880;DHT22;7010;48.200;16.332;2022-08-21T08:18:21;18.30;99.90
13880;DHT22;7010;48.200;16.332;2022-08-21T08:20:49;18.40;99.90
13880;DHT22;7010;48.200;16.332;2022-08-21T08:23:19;18.40;99.90
13880;DHT22;7010;48.200;16.332;2022-08-21T08:25:47;18.40;99.90
13880;DHT22;7010;48.200;16.332;2022-08-21T08:28:16;18.50;99.90
13880;DHT22;7010;48.200;16.332;2022-08-21T08:30:45;18.50;99.90
13880;DHT22;7010;48.200;16.332;2022-08-21T08:33:14;18.60;99.90
13880;DHT22;7010;48.200;16.332;2022-08-21T08:35:46;18.60;99.90
13880;DHT22;7010;48.200;16.332;2022-08-21T08:38:16;18.70;99.90
13880;DHT22;7010;48.200;16.332;2022-08-21T08:40:54;18.80;99.90
13880;DHT22;7010;48.200;16.332;2022-08-21T08:43:23;18.90;99.90
13880;DHT22;7010;48.200;16.332;2022-08-21T08:45:54;19.00;99.90
13880;DHT22;7010;48.200;16.332;2022-08-21T08:48:35;19.10;99.90
13880;DHT22;7010;48.200;16.332;2022-08-21T08:51:11;19.10;99.90
13880;DHT22;7010;48.200;16.332;2022-08-21T08:53:48;19.20;99.90
13880;DHT22;7010;48.200;16.332;2022-08-21T08:56:26;19.30;99.90
13880;DHT22;7010;48.200;16.332;2022-08-21T08:58:58;19.40;99.90
13880;DHT22;7010;48.200;16.332;2022-08-21T09:01:29;19.50;99.90
13880;DHT22;7010;48.200;16.332;2022-08-21T09:04:04;19.70;99.90
13880;DHT22;7010;48.200;16.332;2022-08-21T09:06:45;19.80;99.90
13880;DHT22;7010;48.200;16.332;2022-08-21T09:09:30;20.00;99.90
13880;DHT22;7010;48.200;16.332;2022-08-21T09:12:11;20.00;99.90
13880;DHT22;7010;48.200;16.332;2022-08-21T09:14:50;20.00;99.90
13880;DHT22;7010;48.200;16.332;2022-08-21T09:17:39;20.00;99.90
13880;DHT22;7010;48.200;16.332;2022-08-21T09:20:19;20.00;99.90
13880;DHT22;7010;48.200;16.332;2022-08-21T09:22:58;19.90;99.90
13880;DHT22;7010;48.200;16.332;2022-08-21T09:25:32;20.00;99.90
13880;DHT22;7010;48.200;16.332;2022-08-21T09:28:02;20.10;99.90
13880;DHT22;7010;48.200;16.332;2022-08-21T09:30:32;20.00;99.90
13880;DHT22;7010;48.200;16.332;2022-08-21T09:33:01;19.80;99.90
13880;DHT22;7010;48.200;16.332;2022-08-21T09:35:29;19.70;99.90
13880;DHT22;7010;48.200;16.332;2022-08-21T09:38:00;19.60;99.90
13880;DHT22;7010;48.200;16.332;2022-08-21T09:40:35;19.60;99.90
13880;DHT22;7010;48.200;16.332;2022-08-21T09:43:14;19.60;99.90
13880;DHT22;7010;48.200;16.332;2022-08-21T09:45:46;19.70;99.90
13880;DHT22;7010;48.200;16.332;2022-08-21T09:48:18;19.60;99.90
13880;DHT22;7010;48.200;16.332;2022-08-21T09:50:48;19.60;99.90
13880;DHT22;7010;48.200;16.332;2022-08-21T09:53:20;19.60;99.90
13880;DHT22;7010;48.200;16.332;2022-08-21T09:55:52;19.50;99.90
13880;DHT22;7010;48.200;16.332;2022-08-21T09:58:38;19.50;99.90
13880;DHT22;7010;48.200;16.332;2022-08-21T10:01:06;19.50;99.90
13880;DHT22;7010;48.200;16.332;2022-08-21T10:03:40;19.50;99.90
13880;DHT22;7010;48.200;16.332;2022-08-21T10:06:09;19.60;99.90
13880;DHT22;7010;48.200;16.332;2022-08-21T10:08:41;19.80;99.90
13880;DHT22;7010;48.200;16.332;2022-08-21T10:11:12;19.80;99.90
13880;DHT22;7010;48.200;16.332;2022-08-21T10:13:53;19.90;99.90
13880;DHT22;7010;48.200;16.332;2022-08-21T10:16:30;19.90;99.90
13880;DHT22;7010;48.200;16.332;2022-08-21T10:19:15;19.80;99.90
13880;DHT22;7010;48.200;16.332;2022-08-21T10:22:00;19.60;99.90
13880;DHT22;7010;48.200;16.332;2022-08-21T10:24:35;19.70;99.90
13880;DHT22;7010;48.200;16.332;2022-08-21T10:27:13;19.70;99.90
13880;DHT22;7010;48.200;16.332;2022-08-21T10:29:49;19.70;99.90
13880;DHT22;7010;48.200;16.332;2022-08-21T10:32:30;19.70;99.90
13880;DHT22;7010;48.200;16.332;2022-08-21T10:35:08;19.70;99.90
13880;DHT22;7010;48.200;16.332;2022-08-21T10:37:55;19.60;99.90
13880;DHT22;7010;48.200;16.332;2022-08-21T10:40:29;19.60;99.90
13880;DHT22;7010;48.200;16.332;2022-08-21T10:43:08;19.60;99.90
13880;DHT22;7010;48.200;16.332;2022-08-21T10:45:50;19.60;99.90
13880;DHT22;7010;48.200;16.332;2022-08-21T10:48:25;19.70;99.90
13880;DHT22;7010;48.200;16.332;2022-08-21T10:50:59;19.70;99.90
13880;DHT22;7010;48.200;16.332;2022-08-21T10:53:50;19.50;99.90
13880;DHT22;7010;48.200;16.332;2022-08-21T10:56:23;19.40;99.90
13880;DHT22;7010;48.200;16.332;2022-08-21T10:59:04;19.30;99.90
13880;DHT22;7010;48.200;16.332;2022-08-21T11:01:44;19.30;99.90
13880;DHT22;7010;48.200;16.332;2022-08-21T11:04:20;19.30;99.90
13880;DHT22;7010;48.200;16.332;2022-08-21T11:06:53;19.30;99.90
13880;DHT22;7010;48.200;16.332;2022-08-21T11:09:25;19.00;99.90
13880;DHT22;7010;48.200;16.332;2022-08-21T11:11:58;19.10;99.90
13880;DHT22;7010;48.200;16.332;2022-08-21T11:14:44;19.40;99.90
13880;DHT22;7010;48.200;16.332;2022-08-21T11:17:20;19.80;99.90
13880;DHT22;7010;48.200;16.332;2022-08-21T11:19:54;20.30;99.90
13880;DHT22;7010;48.200;16.332;2022-08-21T11:22:33;20.70;99.90
13880;DHT22;7010;48.200;16.332;2022-08-21T11:25:07;20.90;99.90
13880;DHT22;7010;48.200;16.332;2022-08-21T11:27:42;21.20;99.90
13880;DHT22;7010;48.200;16.332;2022-08-21T11:30:12;21.40;99.90
13880;DHT22;7010;48.200;16.332;2022-08-21T11:32:57;21.50;99.90
13880;DHT22;7010;48.200;16.332;2022-08-21T11:35:33;21.60;99.90
13880;DHT22;7010;48.200;16.332;2022-08-21T11:38:28;21.50;99.90
13880;DHT22;7010;48.200;16.332;2022-08-21T11:41:13;21.50;99.90
13880;DHT22;7010;48.200;16.332;2022-08-21T11:43:46;21.50;99.90
13880;DHT22;7010;48.200;16.332;2022-08-21T11:46:25;21.50;99.90
13880;DHT22;7010;48.200;16.332;2022-08-21T11:49:17;21.50;99.90
13880;DHT22;7010;48.200;16.332;2022-08-21T11:51:53;21.50;99.90
13880;DHT22;7010;48.200;16.332;2022-08-21T11:54:27;21.40;99.90
13880;DHT22;7010;48.200;16.332;2022-08-21T11:57:02;21.30;99.90
13880;DHT22;7010;48.200;16.332;2022-08-21T11:59:37;21.00;99.90
13880;DHT22;7010;48.200;16.332;2022-08-21T12:02:12;20.90;99.90
13880;DHT22;7010;48.200;16.332;2022-08-21T12:04:51;20.90;99.90
13880;DHT22;7010;48.200;16.332;2022-08-21T12:07:34;20.80;99.90
13880;DHT22;7010;48.200;16.332;2022-08-21T12:10:06;20.80;99.90
13880;DHT22;7010;48.200;16.332;2022-08-21T12:12:38;20.70;99.90
13880;DHT22;7010;48.200;16.332;2022-08-21T12:15:25;20.70;99.90
13880;DHT22;7010;48.200;16.332;2022-08-21T12:17:57;20.80;99.90
13880;DHT22;7010;48.200;16.332;2022-08-21T12:20:39;20.80;99.90
13880;DHT22;7010;48.200;16.332;2022-08-21T12:23:26;20.90;99.90
13880;DHT22;7010;48.200;16.332;2022-08-21T12:26:18;20.70;99.90
13880;DHT22;7010;48.200;16.332;2022-08-21T12:28:49;20.40;99.90
13880;DHT22;7010;48.200;16.332;2022-08-21T12:31:20;20.20;99.90
13880;DHT22;7010;48.200;16.332;2022-08-21T12:33:55;19.90;99.90
13880;DHT22;7010;48.200;16.332;2022-08-21T12:36:34;19.80;99.90
13880;DHT22;7010;48.200;16.332;2022-08-21T12:39:12;19.80;99.90
13880;DHT22;7010;48.200;16.332;2022-08-21T12:41:46;19.80;99.90
13880;DHT22;7010;48.200;16.332;2022-08-21T12:44:20;19.90;99.90
13880;DHT22;7010;48.200;16.332;2022-08-21T12:46:56;19.80;99.90
13880;DHT22;7010;48.200;16.332;2022-08-21T12:49:28;19.80;99.90
13880;DHT22;7010;48.200;16.332;2022-08-21T12:52:05;19.80;99.90
13880;DHT22;7010;48.200;16.332;2022-08-21T12:54:39;19.80;99.90
13880;DHT22;7010;48.200;16.332;2022-08-21T12:57:17;19.80;99.90
13880;DHT22;7010;48.200;16.332;2022-08-21T12:59:46;19.80;99.90
13880;DHT22;7010;48.200;16.332;2022-08-21T13:02:18;19.70;99.90
13880;DHT22;7010;48.200;16.332;2022-08-21T13:04:47;19.70;99.90
13880;DHT22;7010;48.200;16.332;2022-08-21T13:07:24;19.70;99.90
13880;DHT22;7010;48.200;16.332;2022-08-21T13:09:57;19.70;99.90
13880;DHT22;7010;48.200;16.332;2022-08-21T13:12:27;19.80;99.90
13880;DHT22;7010;48.200;16.332;2022-08-21T13:15:02;19.80;99.90
13880;DHT22;7010;48.200;16.332;2022-08-21T13:17:36;19.90;99.90
13880;DHT22;7010;48.200;16.332;2022-08-21T13:20:09;19.90;99.90
13880;DHT22;7010;48.200;16.332;2022-08-21T13:22:42;19.90;99.90
13880;DHT22;7010;48.200;16.332;2022-08-21T13:25:13;19.90;99.90
13880;DHT22;7010;48.200;16.332;2022-08-21T13:27:43;19.90;99.90
13880;DHT22;7010;48.200;16.332;2022-08-21T13:30:18;19.90;99.90
13880;DHT22;7010;48.200;16.332;2022-08-21T13:32:49;19.80;99.90
13880;DHT22;7010;48.200;16.332;2022-08-21T13:35:20;19.80;99.90
13880;DHT22;7010;48.200;16.332;2022-08-21T13:37:50;19.80;99.90
13880;DHT22;7010;48.200;16.332;2022-08-21T13:40:22;19.70;99.90
13880;DHT22;7010;48.200;16.332;2022-08-21T13:42:52;19.70;99.90
13880;DHT22;7010;48.200;16.332;2022-08-21T13:45:24;19.70;99.90
13880;DHT22;7010;48.200;16.332;2022-08-21T13:47:54;19.70;99.90
13880;DHT22;7010;48.200;16.332;2022-08-21T13:50:24;19.70;99.90
13880;DHT22;7010;48.200;16.332;2022-08-21T13:53:01;19.80;99.90
13880;DHT22;7010;48.200;16.332;2022-08-21T13:55:39;19.80;99.90
13880;DHT22;7010;48.200;16.332;2022-08-21T13:58:09;19.90;99.90
13880;DHT22;7010;48.200;16.332;2022-08-21T14:00:46;19.90;99.90
13880;DHT22;7010;48.200;16.332;2022-08-21T14:03:27;19.90;99.90
13880;DHT22;7010;48.200;16.332;2022-08-21T14:05:56;20.00;99.90
13880;DHT22;7010;48.200;16.332;2022-08-21T14:08:33;19.90;99.90
13880;DHT22;7010;48.200;16.332;2022-08-21T14:11:04;20.00;99.90
13880;DHT22;7010;48.200;16.332;2022-08-21T14:13:37;19.90;99.90
13880;DHT22;7010;48.200;16.332;2022-08-21T14:16:13;20.00;99.90
13880;DHT22;7010;48.200;16.332;2022-08-21T14:18:48;20.00;99.90
13880;DHT22;7010;48.200;16.332;2022-08-21T14:21:27;20.10;99.90
13880;DHT22;7010;48.200;16.332;2022-08-21T14:24:06;20.10;99.90
13880;DHT22;7010;48.200;16.332;2022-08-21T14:26:36;20.10;99.90
13880;DHT22;7010;48.200;16.332;2022-08-21T14:29:08;20.20;99.90
13880;DHT22;7010;48.200;16.332;2022-08-21T14:31:37;20.20;99.90
13880;DHT22;7010;48.200;16.332;2022-08-21T14:34:11;20.20;99.90
13880;DHT22;7010;48.200;16.332;2022-08-21T14:36:46;20.20;99.90
13880;DHT22;7010;48.200;16.332;2022-08-21T14:39:16;20.20;99.90
13880;DHT22;7010;48.200;16.332;2022-08-21T14:41:45;20.30;99.90
13880;DHT22;7010;48.200;16.332;2022-08-21T14:44:16;20.30;99.90
13880;DHT22;7010;48.200;16.332;2022-08-21T14:46:44;20.40;99.90
13880;DHT22;7010;48.200;16.332;2022-08-21T14:49:24;20.50;99.90
13880;DHT22;7010;48.200;16.332;2022-08-21T14:51:53;20.50;99.90
13880;DHT22;7010;48.200;16.332;2022-08-21T14:54:27;20.50;99.90
13880;DHT22;7010;48.200;16.332;2022-08-21T14:56:59;20.50;99.90
13880;DHT22;7010;48.200;16.332;2022-08-21T14:59:29;20.50;99.90
13880;DHT22;7010;48.200;16.332;2022-08-21T15:01:57;20.50;99.90
13880;DHT22;7010;48.200;16.332;2022-08-21T15:04:26;20.40;99.90
13880;DHT22;7010;48.200;16.332;2022-08-21T15:06:54;20.40;99.90
13880;DHT22;7010;48.200;16.332;2022-08-21T15:09:23;20.30;99.90
13880;DHT22;7010;48.200;16.332;2022-08-21T15:11:55;20.30;99.90
13880;DHT22;7010;48.200;16.332;2022-08-21T15:14:26;20.30;99.90
13880;DHT22;7010;48.200;16.332;2022-08-21T15:16:55;20.20;99.90
13880;DHT22;7010;48.200;16.332;2022-08-21T15:19:24;20.20;99.90
13880;DHT22;7010;48.200;16.332;2022-08-21T15:21:52;20.20;99.90
13880;DHT22;7010;48.200;16.332;2022-08-21T15:24:20;20.20;99.90
13880;DHT22;7010;48.200;16.332;2022-08-21T15:26:49;20.30;99.90
13880;DHT22;7010;48.200;16.332;2022-08-21T15:29:20;20.30;99.90
13880;DHT22;7010;48.200;16.332;2022-08-21T15:31:53;20.30;99.90
13880;DHT22;7010;48.200;16.332;2022-08-21T15:34:24;20.30;99.90
13880;DHT22;7010;48.200;16.332;2022-08-21T15:36:54;20.30;99.90
13880;DHT22;7010;48.200;16.332;2022-08-21T15:39:24;20.30;99.90
13880;DHT22;7010;48.200;16.332;2022-08-21T15:41:57;20.30;99.90
13880;DHT22;7010;48.200;16.332;2022-08-21T15:44:39;20.30;99.90
13880;DHT22;7010;48.200;16.332;2022-08-21T15:47:11;20.30;99.90
13880;DHT22;7010;48.200;16.332;2022-08-21T15:49:40;20.30;99.90
13880;DHT22;7010;48.200;16.332;2022-08-21T15:52:11;20.40;99.90
13880;DHT22;7010;48.200;16.332;2022-08-21T15:54:40;20.40;99.90
13880;DHT22;7010;48.200;16.332;2022-08-21T15:57:09;20.40;99.90
13880;DHT22;7010;48.200;16.332;2022-08-21T15:59:43;20.40;99.90